Pagrindinis puslapis
METAR-TAF:

METAR-TAF

Oro uostai :

Kuveitas, Kuveitas

platuma: 29-13N, ilguma: 047-59E, Aukštis: 55 m

Dabartinis oras

Ataskaita buvo paskelbta 24 minutes, ne 08:00 UTC
Ramus vėjas
Temperatūra 21°C
Drėgmė 40%
Slėgis 1021 hPa
Matomumas: 7000 m

METAR: OKBK 190800Z 00000KT 7000 NSC 21/07 Q1021 NOSIG

Laikas: 11:24 (08:24 UTC)

Prognozė

Ataskaita buvo paskelbta 3 valandos ir 39 minutes, ne 04:45 UTC
Prognozė galioja nuo 19 metu 06 UTC su 20 metu 12 UTC
Vėjas 3 kt nuo kintamojo kryptimis
Matomumas: 6000 m
Tapsmas
nuo 19 metu 11 UTC su 19 metu 13 UTC
Mažai debesys ne aukštis 4000 ft
Išsisklaidę debesys ne aukštis 8000 ft

TAF: OKBK 190445Z 1906/2012 VRB03KT 6000 NSC BECMG 1911/1913 FEW040 SCT080

Orai ataskaitas ir orų prognozės (METAR, TAF).

turimą stotys yra geltonos ir raudonos taškus žemėlapyje.

Perkelti pele per norėdami pamatyti stoties vardą.

Tada spustelėkite, norėdami matyti oro stebėjimo ir prognozės.

Norėdami pakeisti žemėlapį: spustelėkite ant žalios mygtukų su juodo kryžiaus žemyn,; žalią mygtuką su brūkšneliu, jei norite nutolinti; arba žalių rodyklių gretimoms žemėlapius.


METAR-TAF: